Time;durP1;ratioP1;P1;durP2;ratioP2;P2;SDS_P1;SDS_P2;PMS_P1;PMS_P2;Temp;Humidity;BMP_temperature;BMP_pressure;BME280_temperature;BME280_humidity;BME280_pressure;Samples;Min_cycle;Max_cycle;Signal;HPM_P1;HPM_P2
2023/05/14 00:00:51;;;;;;;14.43;11.87;;;11.40;99.90;;;;;;5020330;28;20229;-80
2023/05/14 00:03:16;;;;;;;12.83;11.50;;;11.30;99.90;;;;;;5031902;28;20214;-80
2023/05/14 00:05:42;;;;;;;12.70;11.50;;;11.30;99.90;;;;;;5024652;28;20178;-79
2023/05/14 00:08:07;;;;;;;13.77;12.27;;;11.30;99.90;;;;;;5028933;28;20237;-80
2023/05/14 00:10:33;;;;;;;12.87;11.57;;;11.40;99.90;;;;;;5022912;28;20198;-80
2023/05/14 00:12:58;;;;;;;12.70;11.47;;;11.40;99.90;;;;;;5016726;28;20647;-80
2023/05/14 00:15:24;;;;;;;11.60;10.43;;;11.40;99.90;;;;;;5021310;28;20178;-79
2023/05/14 00:17:49;;;;;;;13.93;12.47;;;11.40;99.90;;;;;;5011192;28;20174;-80
2023/05/14 00:20:15;;;;;;;14.07;12.47;;;11.40;99.90;;;;;;5025504;28;20248;-80
2023/05/14 00:22:41;;;;;;;15.70;12.73;;;11.40;99.90;;;;;;5024507;28;20174;-79
2023/05/14 00:25:07;;;;;;;14.30;12.57;;;11.30;99.90;;;;;;5027272;28;20183;-80
2023/05/14 00:27:33;;;;;;;12.80;11.20;;;11.30;99.90;;;;;;5024759;28;20198;-79
2023/05/14 00:29:59;;;;;;;11.90;10.80;;;11.30;99.90;;;;;;5035956;28;20420;-79
2023/05/14 00:32:24;;;;;;;13.00;11.70;;;11.30;99.90;;;;;;5030270;28;20555;-79
2023/05/14 00:34:50;;;;;;;13.37;11.37;;;11.30;99.90;;;;;;5020744;28;20182;-80
2023/05/14 00:37:15;;;;;;;14.20;12.03;;;11.30;99.90;;;;;;5017029;28;20598;-80
2023/05/14 00:39:41;;;;;;;13.07;11.70;;;11.20;99.90;;;;;;5014122;28;20243;-80
2023/05/14 00:42:06;;;;;;;16.07;12.87;;;11.30;99.90;;;;;;5017923;28;20233;-79
2023/05/14 00:44:32;;;;;;;14.67;12.57;;;11.30;99.90;;;;;;5022748;28;20182;-80
2023/05/14 00:46:59;;;;;;;14.53;13.03;;;11.20;99.90;;;;;;5036653;28;20209;-80
2023/05/14 00:49:25;;;;;;;15.07;13.57;;;11.10;99.90;;;;;;5010548;28;20240;-80
2023/05/14 00:51:52;;;;;;;13.93;12.03;;;11.10;99.90;;;;;;5019885;28;20460;-79
2023/05/14 00:54:20;;;;;;;14.43;12.33;;;11.10;99.90;;;;;;5024268;28;20422;-80
2023/05/14 00:56:46;;;;;;;13.70;12.33;;;11.00;99.90;;;;;;4999144;28;20425;-80
2023/05/14 00:59:12;;;;;;;12.47;11.20;;;11.00;99.90;;;;;;5016289;28;20945;-80
2023/05/14 02:32:14;;;;;;;19.03;13.53;;;9.40;99.90;;;;;;5219102;23;20512;-76
2023/05/14 02:34:40;;;;;;;14.83;13.17;;;9.40;99.90;;;;;;4975428;28;20815;-76
2023/05/14 02:37:05;;;;;;;14.70;13.20;;;9.40;99.90;;;;;;4968940;28;20199;-77
2023/05/14 02:39:31;;;;;;;16.20;12.80;;;9.30;99.90;;;;;;4985085;28;20183;-76
2023/05/14 02:41:56;;;;;;;19.67;13.70;;;9.30;99.90;;;;;;4985502;28;20714;-76
2023/05/14 02:44:22;;;;;;;16.10;13.10;;;9.30;99.90;;;;;;4993375;28;20296;-75
2023/05/14 02:46:47;;;;;;;14.90;12.67;;;9.30;99.90;;;;;;4994276;28;20186;-76
2023/05/14 02:49:13;;;;;;;15.87;13.63;;;9.30;99.90;;;;;;4993734;28;20536;-76
2023/05/14 02:51:38;;;;;;;17.87;13.80;;;9.30;99.90;;;;;;4980465;28;20223;-76
2023/05/14 02:54:04;;;;;;;21.97;15.07;;;9.30;99.90;;;;;;4981751;28;20210;-76
2023/05/14 02:56:30;;;;;;;16.63;14.80;;;9.40;99.90;;;;;;4989922;28;20668;-76
2023/05/14 02:58:55;;;;;;;15.70;14.00;;;9.40;99.90;;;;;;4990397;28;20282;-76
2023/05/14 03:01:21;;;;;;;17.90;12.67;;;9.40;99.90;;;;;;4982009;28;20231;-74
2023/05/14 03:03:46;;;;;;;16.83;14.70;;;9.50;99.90;;;;;;4979489;28;20198;-76
2023/05/14 03:06:11;;;;;;;19.70;15.27;;;9.50;99.90;;;;;;4993514;28;20213;-76
2023/05/14 03:08:37;;;;;;;15.70;13.90;;;9.50;99.90;;;;;;4988681;28;20579;-76
2023/05/14 03:11:02;;;;;;;17.37;15.43;;;9.50;99.90;;;;;;4981840;28;20215;-76
2023/05/14 03:13:28;;;;;;;17.60;13.73;;;9.60;99.90;;;;;;4976821;28;20601;-76
2023/05/14 03:15:56;;;;;;;16.00;14.00;;;9.70;99.90;;;;;;4993643;28;20199;-76
2023/05/14 03:18:22;;;;;;;16.67;14.30;;;9.70;99.90;;;;;;4982152;28;20293;-76
2023/05/14 03:20:48;;;;;;;18.27;14.13;;;9.70;99.90;;;;;;4988502;28;20560;-76
2023/05/14 03:23:16;;;;;;;16.90;14.07;;;9.70;99.90;;;;;;4975824;28;20207;-76
2023/05/14 03:25:42;;;;;;;15.17;13.20;;;9.80;99.90;;;;;;4992587;28;20187;-75
2023/05/14 03:28:08;;;;;;;17.60;15.03;;;9.80;99.90;;;;;;4984949;28;20486;-76
2023/05/14 03:30:34;;;;;;;14.67;13.20;;;9.80;99.90;;;;;;4967638;28;20195;-76
2023/05/14 03:32:59;;;;;;;22.20;15.87;;;9.80;99.90;;;;;;4976123;28;20439;-76
2023/05/14 03:35:25;;;;;;;17.57;14.67;;;9.80;99.90;;;;;;4981174;28;20223;-76
2023/05/14 03:37:51;;;;;;;17.57;15.00;;;9.80;99.90;;;;;;4974031;28;20203;-75
2023/05/14 03:40:17;;;;;;;15.23;13.63;;;9.90;99.90;;;;;;4972100;28;20215;-74
2023/05/14 03:42:43;;;;;;;19.07;15.50;;;9.90;99.90;;;;;;4981598;28;20458;-75
2023/05/14 03:45:09;;;;;;;16.60;14.37;;;9.90;99.90;;;;;;4974770;28;20191;-76
2023/05/14 03:47:34;;;;;;;21.70;14.03;;;9.90;99.90;;;;;;4985420;28;20198;-76
2023/05/14 03:50:00;;;;;;;16.70;13.97;;;9.90;99.90;;;;;;4967553;28;21149;-76
2023/05/14 03:52:25;;;;;;;18.00;13.87;;;9.90;99.90;;;;;;4988179;28;20561;-76
2023/05/14 03:55:35;;;;;;;18.20;14.70;;;9.90;99.90;;;;;;4963422;28;20215;-73
2023/05/14 03:58:01;;;;;;;21.07;15.40;;;10.00;99.90;;;;;;4974317;28;20195;-74
2023/05/14 04:00:27;;;;;;;16.83;14.47;;;9.90;99.90;;;;;;4973935;28;20525;-76
2023/05/14 04:02:52;;;;;;;17.13;14.50;;;10.00;99.90;;;;;;4973337;28;20501;-75
2023/05/14 04:05:18;;;;;;;15.33;12.77;;;9.90;99.90;;;;;;4982097;28;20716;-76
2023/05/14 04:07:44;;;;;;;18.10;13.10;;;10.00;99.90;;;;;;4986716;28;20203;-75
2023/05/14 04:10:10;;;;;;;14.90;12.93;;;10.00;99.90;;;;;;4991698;28;20198;-76
2023/05/14 04:12:36;;;;;;;15.40;13.73;;;10.00;99.90;;;;;;4985312;28;20457;-76
2023/05/14 04:15:01;;;;;;;16.33;14.30;;;10.00;99.90;;;;;;4977145;28;20200;-75
2023/05/14 04:17:27;;;;;;;21.13;14.90;;;10.00;99.90;;;;;;4981141;28;20699;-76
2023/05/14 04:19:52;;;;;;;15.80;14.20;;;10.00;99.90;;;;;;4987998;28;20558;-76
2023/05/14 04:22:18;;;;;;;16.90;14.50;;;10.10;99.90;;;;;;4981941;28;20223;-76
2023/05/14 04:24:43;;;;;;;20.53;14.57;;;10.10;99.90;;;;;;4986238;28;20252;-75
2023/05/14 04:27:09;;;;;;;14.37;12.83;;;10.10;99.90;;;;;;4976788;28;20786;-76
2023/05/14 04:29:34;;;;;;;15.87;13.30;;;10.10;99.90;;;;;;4984837;28;20198;-76
2023/05/14 04:32:00;;;;;;;21.73;14.93;;;10.10;99.90;;;;;;4976503;28;20223;-76
2023/05/14 04:34:25;;;;;;;17.33;13.37;;;10.10;99.90;;;;;;4983446;28;20183;-76
2023/05/14 04:36:51;;;;;;;13.73;12.03;;;10.10;99.90;;;;;;4978404;28;20226;-76
2023/05/14 04:39:20;;;;;;;16.47;12.80;;;10.20;99.90;;;;;;4982564;28;20191;-76
2023/05/14 04:41:45;;;;;;;15.70;13.47;;;10.20;99.90;;;;;;4978272;28;20269;-76
2023/05/14 04:44:11;;;;;;;13.80;12.40;;;10.20;99.90;;;;;;4979161;28;20861;-76
2023/05/14 04:46:37;;;;;;;14.23;12.43;;;10.20;99.90;;;;;;4980898;28;20223;-76
2023/05/14 04:49:03;;;;;;;16.60;13.23;;;10.20;99.90;;;;;;4972769;28;20459;-76
2023/05/14 04:51:28;;;;;;;14.43;12.83;;;10.20;99.90;;;;;;4970260;28;20221;-76
2023/05/14 04:53:54;;;;;;;16.63;13.03;;;10.30;99.90;;;;;;4986088;28;20195;-76
2023/05/14 04:56:20;;;;;;;15.70;13.27;;;10.30;99.90;;;;;;4983672;28;20184;-76
2023/05/14 04:58:45;;;;;;;14.70;12.50;;;10.30;99.90;;;;;;4983524;28;20218;-76
2023/05/14 05:01:11;;;;;;;14.13;12.63;;;10.30;99.90;;;;;;4984505;28;20820;-76
2023/05/14 05:03:36;;;;;;;16.33;13.53;;;10.30;99.90;;;;;;4973495;28;20278;-76
2023/05/14 05:06:02;;;;;;;17.00;13.27;;;10.30;99.90;;;;;;4983346;28;20210;-75
2023/05/14 05:08:28;;;;;;;13.93;12.53;;;10.30;99.90;;;;;;4972413;28;20188;-76
2023/05/14 05:10:53;;;;;;;14.67;12.90;;;10.30;99.90;;;;;;4968591;28;20731;-76
2023/05/14 05:13:19;;;;;;;13.57;11.93;;;10.30;99.90;;;;;;4997438;28;20195;-76
2023/05/14 05:15:44;;;;;;;13.90;11.93;;;10.30;99.90;;;;;;4978028;28;20192;-76
2023/05/14 05:18:10;;;;;;;13.53;12.13;;;10.40;99.90;;;;;;4970485;28;20198;-76
2023/05/14 05:20:35;;;;;;;14.30;11.20;;;10.40;99.90;;;;;;4971834;28;20219;-76
2023/05/14 05:23:01;;;;;;;13.23;11.93;;;10.40;99.90;;;;;;4978629;28;20184;-75
2023/05/14 05:25:26;;;;;;;12.80;11.20;;;10.50;99.90;;;;;;4981550;28;20187;-77
2023/05/14 05:27:52;;;;;;;12.87;11.30;;;10.50;99.90;;;;;;4985640;28;20663;-76
2023/05/14 05:30:18;;;;;;;13.93;11.43;;;10.50;99.90;;;;;;4982480;28;20183;-76
2023/05/14 05:32:43;;;;;;;12.90;10.90;;;10.60;99.90;;;;;;4981648;28;20198;-76
2023/05/14 05:35:11;;;;;;;14.47;11.40;;;10.60;99.90;;;;;;4982337;28;20206;-75
2023/05/14 05:37:36;;;;;;;14.03;12.60;;;10.60;99.90;;;;;;4975475;28;20199;-76
2023/05/14 05:40:03;;;;;;;12.47;10.50;;;10.60;99.90;;;;;;4983811;28;20530;-76
2023/05/14 05:42:28;;;;;;;11.83;10.67;;;10.70;99.90;;;;;;4988071;28;20683;-75
2023/05/14 05:44:55;;;;;;;12.27;10.63;;;10.70;99.90;;;;;;4986209;28;20430;-76
2023/05/14 05:47:20;;;;;;;13.20;11.40;;;10.70;99.90;;;;;;4980736;28;20688;-75
2023/05/14 05:49:46;;;;;;;12.50;10.67;;;10.80;99.90;;;;;;4973394;28;20427;-75
2023/05/14 05:52:11;;;;;;;11.33;10.13;;;10.80;99.90;;;;;;4964259;28;20202;-74
2023/05/14 05:54:38;;;;;;;11.20;10.00;;;10.80;99.90;;;;;;4990173;28;20234;-75
2023/05/14 05:57:04;;;;;;;11.50;10.40;;;10.90;99.90;;;;;;4982595;28;20644;-76
2023/05/14 05:59:30;;;;;;;15.50;10.53;;;10.90;99.90;;;;;;4982153;28;20419;-75
2023/05/14 06:01:55;;;;;;;11.30;10.20;;;10.90;99.90;;;;;;4942007;28;20592;-72
2023/05/14 06:04:21;;;;;;;10.20;9.30;;;10.90;99.90;;;;;;4849756;28;21061;-79
2023/05/14 06:06:47;;;;;;;10.30;9.30;;;10.90;99.90;;;;;;4854643;28;20204;-69
2023/05/14 06:09:13;;;;;;;11.13;10.03;;;11.00;99.90;;;;;;4837771;28;20909;-74
2023/05/14 06:11:39;;;;;;;10.37;9.30;;;11.00;99.90;;;;;;4855038;28;20426;-74
2023/05/14 06:14:05;;;;;;;13.97;11.47;;;11.10;99.90;;;;;;4849614;28;20416;-81
2023/05/14 06:16:31;;;;;;;10.80;9.70;;;11.10;99.90;;;;;;4893421;28;20932;-76
2023/05/14 06:18:56;;;;;;;13.50;10.80;;;11.30;99.90;;;;;;4890988;28;20623;-76
2023/05/14 06:21:22;;;;;;;15.97;10.90;;;11.30;99.90;;;;;;4859810;28;20791;-76
2023/05/14 06:23:48;;;;;;;12.57;10.00;;;11.40;99.90;;;;;;4851754;28;20997;-74
2023/05/14 06:26:13;;;;;;;12.30;10.80;;;11.50;99.90;;;;;;4981347;28;20172;-75
2023/05/14 06:28:39;;;;;;;11.23;10.03;;;11.50;99.90;;;;;;4985468;28;20187;-73
2023/05/14 06:31:04;;;;;;;12.80;11.07;;;11.50;99.90;;;;;;4972320;28;20211;-74
2023/05/14 06:33:30;;;;;;;11.17;9.97;;;11.60;99.90;;;;;;4969033;28;20832;-72
2023/05/14 06:35:59;;;;;;;11.03;9.93;;;11.60;99.90;;;;;;4970307;28;20716;-73
2023/05/14 06:38:25;;;;;;;10.50;9.40;;;11.60;99.90;;;;;;4991635;28;20183;-72
2023/05/14 06:40:52;;;;;;;10.83;9.77;;;11.70;99.90;;;;;;4970999;28;20478;-72
2023/05/14 06:43:17;;;;;;;10.60;9.47;;;11.80;99.90;;;;;;4989067;28;20171;-72
2023/05/14 06:45:49;;;;;;;11.37;10.17;;;11.90;99.90;;;;;;4990282;28;20433;-73
2023/05/14 06:48:17;;;;;;;14.03;11.70;;;12.00;99.90;;;;;;4973820;28;20211;-73
2023/05/14 06:50:43;;;;;;;13.83;9.50;;;12.10;99.90;;;;;;4972834;28;20443;-73
2023/05/14 06:53:08;;;;;;;12.90;11.23;;;12.20;99.90;;;;;;4989214;28;20840;-75
2023/05/14 06:55:34;;;;;;;9.57;8.67;;;12.30;99.90;;;;;;4989923;28;20287;-73
2023/05/14 06:58:00;;;;;;;12.07;9.80;;;12.30;99.90;;;;;;4990783;28;20175;-73
2023/05/14 07:00:26;;;;;;;14.07;11.17;;;12.30;99.90;;;;;;4990469;28;20859;-73
2023/05/14 07:02:51;;;;;;;11.00;9.90;;;12.30;99.90;;;;;;4989776;28;20217;-73
2023/05/14 07:05:17;;;;;;;12.07;10.80;;;12.40;99.90;;;;;;4973491;28;20429;-74
2023/05/14 07:07:46;;;;;;;10.77;9.30;;;12.40;99.90;;;;;;4990967;28;20195;-73
2023/05/14 07:10:11;;;;;;;11.23;10.17;;;12.40;99.90;;;;;;4976265;28;20231;-73
2023/05/14 07:12:37;;;;;;;10.63;9.53;;;12.50;99.90;;;;;;4984445;28;20496;-74
2023/05/14 07:15:06;;;;;;;10.80;9.70;;;12.60;99.90;;;;;;4980624;28;20581;-74
2023/05/14 07:17:31;;;;;;;12.60;10.90;;;12.50;99.90;;;;;;4994752;28;20324;-73
2023/05/14 07:19:57;;;;;;;11.93;10.10;;;12.50;99.90;;;;;;4984460;28;20533;-73
2023/05/14 07:22:22;;;;;;;10.10;9.00;;;12.50;99.90;;;;;;4988952;28;20204;-72
2023/05/14 07:24:49;;;;;;;11.37;10.17;;;12.50;99.90;;;;;;4981570;28;20187;-73
2023/05/14 07:27:15;;;;;;;11.67;10.53;;;12.60;99.90;;;;;;4974326;28;20590;-73
2023/05/14 07:29:44;;;;;;;11.13;9.80;;;12.70;99.90;;;;;;4967338;28;20428;-73
2023/05/14 07:32:10;;;;;;;11.20;10.10;;;12.80;99.90;;;;;;4988959;28;20553;-71
2023/05/14 07:34:35;;;;;;;11.07;9.80;;;12.90;99.90;;;;;;4987923;28;20954;-73
2023/05/14 07:37:02;;;;;;;10.33;9.43;;;13.10;99.90;;;;;;4993483;28;20274;-72
2023/05/14 07:39:27;;;;;;;14.10;9.93;;;13.20;99.90;;;;;;4992957;28;20171;-73
2023/05/14 07:41:56;;;;;;;12.37;9.33;;;13.30;99.90;;;;;;4974458;28;20523;-72
2023/05/14 07:44:24;;;;;;;13.23;10.37;;;13.50;99.90;;;;;;4975188;28;20171;-72
2023/05/14 07:46:50;;;;;;;13.00;10.27;;;13.60;99.90;;;;;;4993092;28;20426;-72
2023/05/14 07:49:15;;;;;;;14.57;10.93;;;13.70;99.90;;;;;;4992913;28;20414;-72
2023/05/14 07:51:44;;;;;;;11.17;9.60;;;13.90;99.90;;;;;;4992761;28;20210;-72
2023/05/14 07:54:10;;;;;;;14.03;10.77;;;14.20;99.90;;;;;;4992256;28;20180;-71
2023/05/14 07:56:35;;;;;;;14.87;9.67;;;14.20;99.90;;;;;;4975385;28;20565;-72
2023/05/14 07:59:06;;;;;;;11.87;9.40;;;14.30;99.90;;;;;;4992995;28;20190;-72
2023/05/14 08:01:31;;;;;;;12.00;10.13;;;14.60;99.90;;;;;;4992112;28;20213;-72
2023/05/14 08:03:57;;;;;;;10.73;9.73;;;14.90;99.90;;;;;;4991824;28;20414;-74
2023/05/14 08:06:26;;;;;;;12.33;9.50;;;15.30;99.90;;;;;;4992920;28;20256;-71
2023/05/14 08:08:51;;;;;;;11.53;9.93;;;15.60;99.90;;;;;;4992811;28;20203;-72
2023/05/14 08:11:17;;;;;;;15.10;9.37;;;16.20;99.90;;;;;;4992615;28;20559;-74
2023/05/14 08:13:43;;;;;;;9.90;8.90;;;16.80;99.90;;;;;;4991537;28;20620;-72
2023/05/14 08:16:08;;;;;;;10.30;9.30;;;17.50;99.90;;;;;;4992850;28;20219;-73
2023/05/14 08:18:34;;;;;;;9.93;8.83;;;18.00;99.90;;;;;;4992369;28;20226;-73
2023/05/14 08:21:02;;;;;;;9.20;8.40;;;19.10;99.90;;;;;;4974922;28;20618;-74
2023/05/14 08:23:28;;;;;;;8.07;7.27;;;20.10;99.90;;;;;;4991206;28;20188;-72
2023/05/14 08:25:53;;;;;;;9.57;8.43;;;19.90;99.90;;;;;;4992444;28;20915;-73
2023/05/14 08:28:21;;;;;;;9.23;8.40;;;19.90;99.90;;;;;;4974995;28;20189;-72
2023/05/14 08:30:47;;;;;;;9.50;8.60;;;19.70;99.90;;;;;;4992307;28;20262;-73
2023/05/14 08:33:12;;;;;;;8.83;7.90;;;19.50;99.90;;;;;;4991057;28;20426;-73
2023/05/14 08:35:38;;;;;;;10.23;8.73;;;19.20;99.90;;;;;;4983859;28;20218;-73
2023/05/14 08:38:03;;;;;;;10.70;9.43;;;19.00;99.90;;;;;;4992211;28;20191;-73
2023/05/14 08:40:29;;;;;;;9.73;8.83;;;18.80;99.90;;;;;;4991666;28;20202;-73
2023/05/14 08:42:56;;;;;;;10.67;9.30;;;18.90;99.90;;;;;;4973517;28;20179;-71
2023/05/14 08:45:32;;;;;;;10.97;8.73;;;18.80;99.90;;;;;;4992007;28;20587;-74
2023/05/14 08:47:59;;;;;;;9.23;8.30;;;18.70;99.90;;;;;;4992226;28;20410;-73
2023/05/14 08:50:25;;;;;;;9.87;8.97;;;18.90;99.90;;;;;;4991392;28;20511;-73
2023/05/14 08:52:52;;;;;;;11.33;10.13;;;19.10;99.90;;;;;;4991405;28;20501;-74
2023/05/14 08:55:18;;;;;;;9.80;8.80;;;19.20;99.90;;;;;;4991555;28;20414;-73
2023/05/14 08:57:45;;;;;;;9.93;8.97;;;19.40;99.90;;;;;;4991753;28;20428;-75
2023/05/14 09:00:11;;;;;;;10.60;9.50;;;19.70;99.90;;;;;;4991564;28;20978;-73
2023/05/14 09:02:39;;;;;;;12.97;8.80;;;20.10;99.90;;;;;;4990470;28;20446;-73
2023/05/14 09:05:06;;;;;;;10.00;9.00;;;20.70;99.90;;;;;;4991293;28;20410;-73
2023/05/14 09:07:32;;;;;;;17.33;9.07;;;20.90;99.90;;;;;;4993012;28;20410;-73
2023/05/14 09:09:58;;;;;;;9.90;8.90;;;21.20;99.90;;;;;;4985765;28;20932;-74
2023/05/14 09:12:24;;;;;;;9.47;8.70;;;21.10;99.90;;;;;;4970185;28;20450;-72
2023/05/14 09:14:49;;;;;;;18.27;9.90;;;21.50;99.90;;;;;;4991058;28;20993;-70
2023/05/14 09:17:16;;;;;;;10.07;9.13;;;21.60;99.90;;;;;;4966951;28;20270;-73
2023/05/14 09:19:42;;;;;;;10.50;9.50;;;21.70;99.90;;;;;;4989446;28;20194;-72
2023/05/14 09:22:11;;;;;;;9.63;8.73;;;21.50;99.90;;;;;;4990221;28;20498;-72
2023/05/14 09:24:37;;;;;;;10.80;9.90;;;21.30;99.90;;;;;;4991020;28;20477;-73
2023/05/14 09:27:04;;;;;;;13.27;11.97;;;21.20;99.90;;;;;;4974128;28;20415;-72
2023/05/14 09:29:30;;;;;;;11.07;9.90;;;21.30;99.90;;;;;;4991217;28;20425;-72
2023/05/14 09:31:57;;;;;;;12.03;10.20;;;21.50;99.90;;;;;;4990098;28;20838;-73
2023/05/14 09:34:27;;;;;;;10.70;9.70;;;21.90;99.90;;;;;;4990958;28;20410;-72
2023/05/14 09:37:00;;;;;;;11.60;10.23;;;22.60;99.90;;;;;;4990877;28;20431;-72
2023/05/14 09:39:26;;;;;;;9.67;8.77;;;23.00;99.90;;;;;;4973259;28;20427;-73
2023/05/14 09:41:53;;;;;;;10.03;8.60;;;23.50;99.90;;;;;;4972335;28;20470;-71
2023/05/14 09:44:20;;;;;;;7.33;6.73;;;23.20;99.90;;;;;;4991298;28;20659;-72
2023/05/14 09:46:46;;;;;;;8.13;7.10;;;23.10;99.90;;;;;;4990857;28;20921;-72
2023/05/14 09:49:12;;;;;;;8.68;7.88;;;23.40;99.90;;;;;;4988898;28;20483;-73
2023/05/14 09:51:38;;;;;;;6.87;6.37;;;24.40;99.90;;;;;;4990377;28;20281;-74
2023/05/14 09:54:05;;;;;;;9.80;8.83;;;24.50;99.90;;;;;;4990087;28;20214;-73
2023/05/14 09:56:32;;;;;;;9.37;8.57;;;24.30;99.90;;;;;;4990510;28;20183;-73
2023/05/14 09:58:58;;;;;;;10.03;9.13;;;24.00;99.90;;;;;;4990925;28;20445;-74
2023/05/14 10:01:24;;;;;;;9.83;8.83;;;23.40;99.90;;;;;;4990369;28;20466;-70
2023/05/14 10:03:50;;;;;;;10.00;9.10;;;22.70;99.90;;;;;;4986369;28;20175;-71
2023/05/14 10:06:20;;;;;;;9.43;8.67;;;22.00;99.90;;;;;;4986702;28;20410;-73
2023/05/14 10:08:48;;;;;;;9.60;7.97;;;21.40;99.90;;;;;;4990597;28;20409;-74
2023/05/14 10:11:25;;;;;;;9.80;9.00;;;21.00;99.90;;;;;;4990525;28;20836;-73
2023/05/14 10:14:16;;;;;;;10.00;7.80;;;21.00;99.90;;;;;;4989588;28;20476;-73
2023/05/14 10:16:48;;;;;;;9.77;8.87;;;20.50;99.90;;;;;;4990601;28;20418;-73
2023/05/14 10:19:16;;;;;;;8.83;7.80;;;20.30;99.90;;;;;;4982660;28;20419;-73
2023/05/14 10:21:46;;;;;;;9.00;7.77;;;20.20;99.90;;;;;;4989985;28;20580;-72
2023/05/14 10:24:12;;;;;;;7.60;6.93;;;20.10;99.90;;;;;;4990311;28;20514;-71
2023/05/14 10:26:39;;;;;;;10.33;7.47;;;19.90;99.90;;;;;;4973287;28;20573;-72
2023/05/14 10:29:05;;;;;;;7.67;5.70;;;19.80;99.90;;;;;;4993128;28;20183;-72
2023/05/14 10:31:49;;;;;;;6.23;5.73;;;19.80;99.90;;;;;;4969840;28;20470;-70
2023/05/14 10:34:37;;;;;;;7.00;6.30;;;20.00;99.90;;;;;;4989633;28;20406;-72
2023/05/14 10:37:15;;;;;;;6.17;5.67;;;20.30;99.90;;;;;;4990619;28;20414;-72
2023/05/14 10:39:51;;;;;;;6.50;6.00;;;20.30;99.90;;;;;;4972878;28;20422;-72
2023/05/14 10:42:18;;;;;;;6.37;5.43;;;20.70;99.90;;;;;;4989607;28;20470;-72
2023/05/14 10:44:57;;;;;;;6.93;6.33;;;21.00;99.90;;;;;;4990366;28;20973;-72
2023/05/14 10:47:23;;;;;;;6.77;6.17;;;21.60;99.90;;;;;;4990622;28;20417;-72
2023/05/14 10:49:53;;;;;;;7.80;7.10;;;21.60;99.90;;;;;;4990387;28;20461;-74
2023/05/14 10:52:21;;;;;;;8.20;7.40;;;21.20;99.90;;;;;;4989656;28;20485;-72
2023/05/14 10:54:50;;;;;;;7.20;6.60;;;21.00;99.90;;;;;;4989817;28;20434;-71
2023/05/14 10:57:20;;;;;;;7.80;7.00;;;21.00;99.90;;;;;;4990434;28;20460;-72
2023/05/14 10:59:53;;;;;;;11.47;7.63;;;20.70;99.90;;;;;;4990627;28;20441;-72
2023/05/14 11:02:25;;;;;;;9.07;8.17;;;20.50;99.90;;;;;;4992790;28;20481;-72
2023/05/14 11:05:03;;;;;;;11.03;9.77;;;19.80;99.90;;;;;;4993637;28;20465;-72
2023/05/14 11:07:35;;;;;;;9.03;8.23;;;19.20;99.90;;;;;;4976200;28;20518;-71
2023/05/14 11:10:11;;;;;;;9.07;8.27;;;18.80;99.90;;;;;;4994000;28;20410;-72
2023/05/14 11:12:45;;;;;;;8.43;7.63;;;18.80;99.90;;;;;;4993244;28;20927;-73
2023/05/14 11:15:13;;;;;;;9.17;8.27;;;18.90;99.90;;;;;;4994045;28;20771;-70
2023/05/14 11:17:40;;;;;;;9.37;8.50;;;19.10;99.90;;;;;;4990379;28;20420;-72
2023/05/14 11:20:07;;;;;;;13.30;7.97;;;19.60;99.90;;;;;;4993706;28;20442;-71
2023/05/14 11:22:35;;;;;;;7.60;6.90;;;19.80;99.90;;;;;;4992462;28;20863;-71
2023/05/14 11:25:01;;;;;;;10.80;7.30;;;19.90;99.90;;;;;;4993293;28;20789;-72
2023/05/14 11:27:26;;;;;;;6.70;6.10;;;19.60;99.90;;;;;;4993504;28;20426;-71
2023/05/14 11:29:53;;;;;;;8.23;7.37;;;19.40;99.90;;;;;;4993243;28;20208;-72
2023/05/14 11:32:19;;;;;;;7.70;7.10;;;19.30;99.90;;;;;;4992467;28;20215;-72
2023/05/14 11:34:45;;;;;;;7.07;6.47;;;19.40;99.90;;;;;;4992972;28;20422;-72
2023/05/14 11:37:12;;;;;;;7.70;7.00;;;19.60;99.90;;;;;;4993876;28;20238;-71
2023/05/14 11:39:38;;;;;;;6.43;5.60;;;19.40;99.90;;;;;;4993486;28;20419;-72
2023/05/14 11:42:13;;;;;;;11.30;7.20;;;19.50;99.90;;;;;;4975119;28;20498;-72
2023/05/14 11:44:39;;;;;;;7.87;7.07;;;19.20;99.90;;;;;;4975707;28;20422;-72
2023/05/14 11:47:06;;;;;;;6.40;5.90;;;19.10;99.90;;;;;;4975227;28;20437;-72
2023/05/14 11:49:31;;;;;;;6.07;5.50;;;19.40;99.90;;;;;;4962254;28;20420;-72
2023/05/14 11:51:58;;;;;;;6.77;6.27;;;19.70;99.90;;;;;;4984521;28;21250;-71
2023/05/14 11:54:28;;;;;;;6.53;5.80;;;19.70;99.90;;;;;;4974004;28;20262;-72
2023/05/14 11:56:55;;;;;;;6.87;6.27;;;19.80;99.90;;;;;;4990769;28;20419;-71
2023/05/14 11:59:24;;;;;;;7.07;6.47;;;19.80;99.90;;;;;;4975823;28;20434;-71
2023/05/14 12:01:54;;;;;;;6.67;5.50;;;20.30;99.90;;;;;;4992972;28;20466;-70
2023/05/14 12:04:23;;;;;;;5.77;5.37;;;20.60;99.90;;;;;;4981513;28;20419;-71
2023/05/14 12:06:50;;;;;;;4.90;4.50;;;20.60;99.90;;;;;;4990980;28;20454;-71
2023/05/14 12:09:19;;;;;;;6.87;4.90;;;20.60;99.90;;;;;;4993016;28;20415;-71
2023/05/14 12:11:46;;;;;;;6.40;5.63;;;20.40;99.90;;;;;;4991721;28;20442;-71
2023/05/14 12:14:20;;;;;;;5.90;5.47;;;19.90;99.90;;;;;;4982259;28;20495;-72
2023/05/14 12:16:46;;;;;;;6.23;5.73;;;19.60;99.90;;;;;;4980974;28;20835;-71
2023/05/14 12:19:16;;;;;;;7.53;5.90;;;19.40;99.90;;;;;;4991613;28;20425;-71
2023/05/14 12:21:43;;;;;;;6.50;6.00;;;19.30;99.90;;;;;;4991543;28;20850;-71
2023/05/14 12:24:11;;;;;;;6.17;5.67;;;19.10;99.90;;;;;;4991188;28;20418;-70
2023/05/14 12:26:39;;;;;;;6.37;5.83;;;19.10;99.90;;;;;;4992437;28;20419;-71
2023/05/14 12:29:08;;;;;;;5.60;5.13;;;19.10;99.90;;;;;;4992085;28;20415;-71
2023/05/14 12:31:35;;;;;;;6.20;5.60;;;18.90;99.90;;;;;;4991162;28;21221;-71
2023/05/14 12:34:02;;;;;;;8.67;6.40;;;18.70;99.90;;;;;;4990783;28;20458;-72
2023/05/14 12:36:28;;;;;;;6.13;5.53;;;18.70;99.90;;;;;;4991718;28;20501;-71
2023/05/14 12:39:00;;;;;;;6.30;5.80;;;18.60;99.90;;;;;;4991484;28;20509;-71
2023/05/14 12:41:27;;;;;;;6.97;6.27;;;18.40;99.90;;;;;;4991665;28;20261;-71
2023/05/14 12:43:52;;;;;;;5.83;5.33;;;18.50;99.90;;;;;;4990539;28;20992;-70
2023/05/14 12:46:18;;;;;;;5.70;5.20;;;18.80;99.90;;;;;;4991870;28;20419;-69
2023/05/14 12:48:45;;;;;;;6.83;5.07;;;19.20;99.90;;;;;;4991260;28;20192;-72
2023/05/14 12:51:10;;;;;;;5.10;4.70;;;19.60;99.90;;;;;;4991137;28;20211;-70
2023/05/14 12:53:36;;;;;;;6.23;5.30;;;19.90;99.90;;;;;;4990578;28;20426;-71
2023/05/14 12:56:01;;;;;;;5.87;5.47;;;19.90;99.90;;;;;;4991539;28;20191;-72
2023/05/14 12:58:27;;;;;;;4.30;4.00;;;19.70;99.90;;;;;;4991043;28;20262;-71
2023/05/14 13:00:53;;;;;;;5.03;4.73;;;19.30;99.90;;;;;;4989768;28;20630;-71
2023/05/14 13:03:18;;;;;;;5.73;5.20;;;19.20;99.90;;;;;;4990102;28;20262;-72
2023/05/14 13:05:44;;;;;;;5.03;4.27;;;19.00;99.90;;;;;;4990985;28;20589;-72
2023/05/14 13:08:09;;;;;;;4.93;4.53;;;18.90;99.90;;;;;;4995899;28;20189;-69
2023/05/14 13:10:35;;;;;;;5.30;4.90;;;18.90;99.90;;;;;;4984605;28;20241;-70
2023/05/14 13:13:03;;;;;;;5.30;4.90;;;18.80;99.90;;;;;;4980899;28;20230;-71
2023/05/14 13:15:30;;;;;;;4.73;4.20;;;19.00;99.90;;;;;;4976943;28;20203;-72
2023/05/14 13:17:55;;;;;;;5.30;4.80;;;19.30;99.90;;;;;;4987983;28;20427;-71
2023/05/14 13:20:22;;;;;;;4.23;3.80;;;19.30;99.90;;;;;;4990731;28;20540;-71
2023/05/14 13:22:48;;;;;;;4.70;4.33;;;19.40;99.90;;;;;;4988688;28;20171;-71
2023/05/14 13:25:13;;;;;;;4.30;4.00;;;19.20;99.90;;;;;;4985807;28;20427;-71
2023/05/14 13:27:39;;;;;;;4.53;4.13;;;19.10;99.90;;;;;;4985615;28;20199;-71
2023/05/14 13:30:05;;;;;;;4.93;4.53;;;19.20;99.90;;;;;;4990954;28;20194;-71
2023/05/14 13:32:30;;;;;;;4.90;4.53;;;19.30;99.90;;;;;;4984325;28;20211;-71
2023/05/14 13:34:56;;;;;;;4.90;4.40;;;19.30;99.90;;;;;;4989824;28;20573;-71
2023/05/14 13:37:22;;;;;;;4.60;4.30;;;19.30;99.90;;;;;;4990353;28;20693;-71
2023/05/14 13:39:48;;;;;;;5.03;4.63;;;19.10;99.90;;;;;;4988679;28;20183;-71
2023/05/14 13:42:13;;;;;;;7.03;6.40;;;19.10;99.90;;;;;;4988614;28;20478;-70
2023/05/14 13:44:39;;;;;;;5.00;4.60;;;18.90;99.90;;;;;;4989930;28;20180;-71
2023/05/14 13:47:04;;;;;;;5.40;5.00;;;18.90;99.90;;;;;;4988823;28;20967;-70
2023/05/14 13:49:30;;;;;;;6.47;5.97;;;18.80;99.90;;;;;;4981834;28;20187;-70
2023/05/14 13:51:55;;;;;;;5.97;5.47;;;18.90;99.90;;;;;;4989026;28;20269;-71
2023/05/14 13:54:21;;;;;;;5.27;4.87;;;19.00;99.90;;;;;;4989119;28;20233;-71
2023/05/14 13:56:46;;;;;;;5.00;4.67;;;19.10;99.90;;;;;;4981779;28;20237;-72
2023/05/14 13:59:12;;;;;;;5.40;4.90;;;19.10;99.90;;;;;;4988757;28;20191;-70
2023/05/14 14:01:37;;;;;;;5.03;4.60;;;19.10;99.90;;;;;;4989773;28;20239;-72
2023/05/14 14:04:03;;;;;;;3.73;3.43;;;19.10;99.90;;;;;;4986364;28;20206;-71
2023/05/14 14:06:31;;;;;;;4.13;3.77;;;19.10;99.90;;;;;;4986402;28;20204;-71